createdAt,value
2022-08-07T00:00:02.844Z,52.927
2022-08-07T00:07:05.162Z,53.174
2022-08-07T00:14:02.163Z,53.174
2022-08-07T00:21:03.257Z,53.232
2022-08-07T00:28:01.717Z,53.232
2022-08-07T00:35:02.040Z,53.493
2022-08-07T00:42:05.200Z,53.493
2022-08-07T00:49:02.047Z,54.049
2022-08-07T00:56:03.555Z,54.049
2022-08-07T01:00:01.514Z,54.318
2022-08-07T01:07:01.388Z,54.318
2022-08-07T01:14:02.013Z,54.606
2022-08-07T01:21:01.670Z,54.606
2022-08-07T01:28:01.672Z,55.183
2022-08-07T01:35:02.221Z,55.183
2022-08-07T01:42:36.755Z,55.657
2022-08-07T01:49:02.405Z,55.657
2022-08-07T01:56:02.182Z,56.167
2022-08-07T02:00:01.816Z,56.167
2022-08-07T02:07:01.959Z,57.088
2022-08-07T02:14:02.698Z,57.088
2022-08-07T02:21:06.453Z,57.571
2022-08-07T02:28:01.819Z,57.571
2022-08-07T02:35:01.577Z,57.773
2022-08-07T02:42:01.702Z,57.571
2022-08-07T02:49:03.349Z,57.571
2022-08-07T02:56:04.076Z,58.097
2022-08-07T03:00:04.927Z,58.097
2022-08-07T03:07:07.247Z,58.791
2022-08-07T03:14:02.044Z,58.791
2022-08-07T03:21:01.827Z,58.864
2022-08-07T03:28:09.575Z,58.864
2022-08-07T03:35:17.973Z,59.186
2022-08-07T03:42:02.018Z,59.186
2022-08-07T03:49:02.994Z,58.201
2022-08-07T03:56:04.321Z,58.201
2022-08-07T04:00:04.033Z,57.89
2022-08-07T04:07:01.850Z,57.89
2022-08-07T04:14:10.987Z,57.894
2022-08-07T04:21:02.063Z,57.894
2022-08-07T04:28:01.934Z,58.291
2022-08-07T04:35:01.694Z,58.291
2022-08-07T04:42:01.767Z,58.157
2022-08-07T04:49:02.148Z,58.157
2022-08-07T04:58:16.493Z,58.925
2022-08-07T05:00:09.634Z,58.925
2022-08-07T05:07:20.291Z,59.412
2022-08-07T05:14:54.218Z,59.412
2022-08-07T05:21:01.773Z,59.815
2022-08-07T05:28:02.872Z,59.815
2022-08-07T05:35:02.308Z,59.623
2022-08-07T05:42:05.279Z,59.535
2022-08-07T05:49:01.542Z,59.535
2022-08-07T05:56:03.701Z,59.375
2022-08-07T06:00:02.487Z,59.375
2022-08-07T06:07:03.683Z,59.442
2022-08-07T06:14:13.594Z,59.442
2022-08-07T06:22:15.202Z,59.358
2022-08-07T06:28:02.723Z,59.358
2022-08-07T06:35:02.138Z,59.158
2022-08-07T06:42:03.409Z,59.158
2022-08-07T06:49:04.380Z,58.554
2022-08-07T06:56:02.047Z,58.554
2022-08-07T07:00:14.488Z,57.833
2022-08-07T07:07:02.382Z,57.833
2022-08-07T07:14:02.472Z,56.91
2022-08-07T07:21:03.932Z,56.91
2022-08-07T07:28:03.731Z,55.911
2022-08-07T07:35:03.953Z,55.911
2022-08-07T07:42:13.734Z,55.272
2022-08-07T07:49:09.165Z,55.272
2022-08-07T07:56:01.752Z,55.174
2022-08-07T08:00:02.313Z,55.174
2022-08-07T08:07:02.823Z,54.192
2022-08-07T08:14:01.561Z,54.192
2022-08-07T08:21:01.999Z,53.625
2022-08-07T08:28:03.820Z,53.625
2022-08-07T08:35:02.965Z,52.648
2022-08-07T08:42:02.285Z,51.717
2022-08-07T08:49:02.258Z,51.717
2022-08-07T08:56:01.388Z,50.766
2022-08-07T09:00:01.974Z,50.766
2022-08-07T09:07:01.490Z,50.766
2022-08-07T09:14:01.695Z,49.131
2022-08-07T09:21:02.138Z,47.663
2022-08-07T09:28:02.974Z,47.663
2022-08-07T09:35:04.468Z,46.887
2022-08-07T09:42:05.856Z,46.887
2022-08-07T09:50:00.490Z,46.421
2022-08-07T09:56:04.258Z,46.421
2022-08-07T10:00:02.359Z,44.548
2022-08-07T10:07:01.942Z,44.548
2022-08-07T10:14:02.447Z,44.659
2022-08-07T10:21:02.040Z,44.659
2022-08-07T10:28:02.499Z,44.719
2022-08-07T10:35:02.029Z,44.719
2022-08-07T10:42:09.748Z,44.381
2022-08-07T10:49:01.922Z,44.381
2022-08-07T10:56:02.546Z,43.463
2022-08-07T11:00:02.754Z,43.463
2022-08-07T11:07:02.083Z,41.813
2022-08-07T11:14:45.969Z,41.813
2022-08-07T11:21:02.308Z,42.356
2022-08-07T11:28:04.530Z,42.356
2022-08-07T11:35:02.093Z,41.882
2022-08-07T11:42:03.314Z,40.877
2022-08-07T11:49:27.700Z,40.877
2022-08-07T11:56:24.785Z,41.263
2022-08-07T12:00:10.859Z,41.263
2022-08-07T12:07:08.021Z,41.263
2022-08-07T12:14:01.531Z,39.853
2022-08-07T12:21:02.211Z,40.001
2022-08-07T12:28:08.555Z,40.001
2022-08-07T12:35:01.846Z,40.125
2022-08-07T12:42:02.469Z,40.125
2022-08-07T12:49:10.054Z,39.652
2022-08-07T12:56:02.925Z,39.652
2022-08-07T13:00:02.344Z,38.519
2022-08-07T13:07:02.165Z,38.519
2022-08-07T13:14:02.166Z,37.574
2022-08-07T13:21:02.796Z,37.574
2022-08-07T13:28:10.861Z,37.861
2022-08-07T13:35:03.295Z,37.861
2022-08-07T13:42:01.987Z,38.381
2022-08-07T13:49:01.390Z,38.381
2022-08-07T13:56:01.467Z,38.315
2022-08-07T14:00:01.550Z,38.315
2022-08-07T14:07:01.745Z,36.874
2022-08-07T14:14:01.584Z,36.874
2022-08-07T14:21:07.933Z,37.613
2022-08-07T14:28:11.203Z,37.613
2022-08-07T14:35:03.874Z,37.081
2022-08-07T14:42:19.632Z,36.31
2022-08-07T14:49:56.170Z,36.31
2022-08-07T14:56:02.102Z,36.798
2022-08-07T15:00:04.353Z,36.798
2022-08-07T15:07:01.789Z,36.798
2022-08-07T15:14:01.602Z,36.396
2022-08-07T15:21:03.912Z,36.629
2022-08-07T15:28:33.093Z,36.629
2022-08-07T15:35:02.054Z,36.449
2022-08-07T15:56:02.847Z,35.418
2022-08-07T16:00:04.161Z,35.935
2022-08-07T16:07:04.746Z,35.935
2022-08-07T16:14:02.913Z,36.365
2022-08-07T16:21:44.198Z,36.365
2022-08-07T16:28:01.840Z,36.538
2022-08-07T16:35:01.600Z,36.538
2022-08-07T16:42:02.294Z,36.62
2022-08-07T16:50:20.597Z,36.62
2022-08-07T16:56:02.178Z,37.048
2022-08-07T17:00:02.145Z,37.048
2022-08-07T17:07:03.177Z,37.312
2022-08-07T17:14:19.486Z,37.312
2022-08-07T17:21:01.399Z,37.823
2022-08-07T17:28:02.171Z,37.823
2022-08-07T17:35:49.785Z,38.598
2022-08-07T17:42:06.988Z,38.776
2022-08-07T17:49:02.129Z,38.776
2022-08-07T17:56:06.666Z,39.151
2022-08-07T18:00:01.628Z,39.151
2022-08-07T18:07:20.638Z,39.151
2022-08-07T18:14:01.879Z,39.89
2022-08-07T18:21:25.131Z,40.291
2022-08-07T18:28:01.693Z,40.291
2022-08-07T18:35:02.170Z,40.908
2022-08-07T18:42:01.476Z,40.908
2022-08-07T18:50:30.475Z,41.086
2022-08-07T18:56:01.584Z,41.086
2022-08-07T19:00:04.429Z,41.523
2022-08-07T19:07:01.352Z,41.523
2022-08-07T19:14:02.193Z,41.571
2022-08-07T19:21:13.492Z,41.571
2022-08-07T19:28:58.666Z,41.938
2022-08-07T19:35:02.293Z,41.938
2022-08-07T19:42:07.866Z,42.302
2022-08-07T19:49:02.226Z,42.302
2022-08-07T19:56:02.074Z,42.761
2022-08-07T20:00:01.881Z,42.761
2022-08-07T20:07:01.465Z,43.153
2022-08-07T20:14:02.028Z,43.153
2022-08-07T20:21:01.875Z,43.345
2022-08-07T20:28:03.331Z,43.345
2022-08-07T20:35:02.487Z,44.04
2022-08-07T20:42:01.881Z,44.29
2022-08-07T20:49:59.395Z,44.29
2022-08-07T20:56:02.127Z,44.921
2022-08-07T21:00:07.937Z,44.921
2022-08-07T21:07:04.444Z,44.921
2022-08-07T21:14:31.522Z,45.294
2022-08-07T21:21:02.178Z,45.399
2022-08-07T21:28:02.547Z,45.399
2022-08-07T21:35:01.646Z,45.78
2022-08-07T21:42:02.697Z,45.78
2022-08-07T21:49:01.352Z,46.218
2022-08-07T21:56:02.239Z,46.218
2022-08-07T22:00:04.313Z,46.933
2022-08-07T22:07:01.475Z,46.933
2022-08-07T22:14:05.167Z,47.193
2022-08-07T22:21:02.387Z,47.193
2022-08-07T22:28:20.142Z,47.816
2022-08-07T22:35:02.232Z,47.816
2022-08-07T22:42:04.023Z,48.485
2022-08-07T22:49:08.044Z,48.485
2022-08-07T22:56:02.044Z,48.658
2022-08-07T23:00:01.532Z,48.658
2022-08-07T23:07:01.957Z,49.69
2022-08-07T23:14:15.177Z,49.69
2022-08-07T23:21:02.118Z,49.847
2022-08-07T23:28:21.073Z,49.847
2022-08-07T23:35:02.458Z,50.667
2022-08-07T23:42:05.261Z,50.667
2022-08-07T23:49:02.174Z,51.033
2022-08-07T23:56:02.007Z,51.299
